sensor_id;sensor_type;location;lat;lon;timestamp;P1;durP1;ratioP1;P2;durP2;ratioP2
27804;SDS011;15183;51.350;11.102;2023-04-27T00:01:38;8.05;;;4.63;;
27804;SDS011;15183;51.350;11.102;2023-04-27T00:07:31;7.13;;;4.65;;
27804;SDS011;15183;51.350;11.102;2023-04-27T00:09:58;9.70;;;5.25;;
27804;SDS011;15183;51.350;11.102;2023-04-27T00:12:24;9.55;;;5.85;;
27804;SDS011;15183;51.350;11.102;2023-04-27T00:14:50;10.27;;;4.75;;
27804;SDS011;15183;51.350;11.102;2023-04-27T00:17:17;9.30;;;5.88;;
27804;SDS011;15183;51.350;11.102;2023-04-27T00:19:43;9.18;;;5.63;;
27804;SDS011;15183;51.350;11.102;2023-04-27T00:22:12;11.20;;;7.40;;
27804;SDS011;15183;51.350;11.102;2023-04-27T00:24:38;12.98;;;6.10;;
27804;SDS011;15183;51.350;11.102;2023-04-27T00:27:06;7.40;;;4.30;;
27804;SDS011;15183;51.350;11.102;2023-04-27T00:29:32;7.95;;;5.43;;
27804;SDS011;15183;51.350;11.102;2023-04-27T00:31:59;11.15;;;5.47;;
27804;SDS011;15183;51.350;11.102;2023-04-27T00:34:25;7.72;;;5.05;;
27804;SDS011;15183;51.350;11.102;2023-04-27T00:36:52;6.93;;;4.32;;
27804;SDS011;15183;51.350;11.102;2023-04-27T00:39:18;6.93;;;3.88;;
27804;SDS011;15183;51.350;11.102;2023-04-27T00:41:44;7.40;;;4.70;;
27804;SDS011;15183;51.350;11.102;2023-04-27T00:44:11;9.98;;;5.05;;
27804;SDS011;15183;51.350;11.102;2023-04-27T00:46:37;5.70;;;4.43;;
27804;SDS011;15183;51.350;11.102;2023-04-27T00:49:03;6.75;;;4.28;;
27804;SDS011;15183;51.350;11.102;2023-04-27T00:51:30;12.27;;;6.35;;
27804;SDS011;15183;51.350;11.102;2023-04-27T00:53:57;8.60;;;5.88;;
27804;SDS011;15183;51.350;11.102;2023-04-27T00:56:24;10.30;;;6.28;;
27804;SDS011;15183;51.350;11.102;2023-04-27T00:58:50;12.20;;;5.40;;
27804;SDS011;15183;51.350;11.102;2023-04-27T01:01:17;10.93;;;6.80;;
27804;SDS011;15183;51.350;11.102;2023-04-27T01:03:45;8.10;;;5.63;;
27804;SDS011;15183;51.350;11.102;2023-04-27T01:06:12;9.93;;;5.55;;
27804;SDS011;15183;51.350;11.102;2023-04-27T01:08:38;9.25;;;5.05;;
27804;SDS011;15183;51.350;11.102;2023-04-27T01:11:05;7.07;;;4.82;;
27804;SDS011;15183;51.350;11.102;2023-04-27T01:13:32;8.18;;;5.35;;
27804;SDS011;15183;51.350;11.102;2023-04-27T01:15:58;7.22;;;4.47;;
27804;SDS011;15183;51.350;11.102;2023-04-27T01:18:24;9.70;;;5.30;;
27804;SDS011;15183;51.350;11.102;2023-04-27T01:20:51;8.93;;;4.80;;
27804;SDS011;15183;51.350;11.102;2023-04-27T01:23:17;8.13;;;4.60;;
27804;SDS011;15183;51.350;11.102;2023-04-27T01:25:44;6.28;;;4.40;;
27804;SDS011;15183;51.350;11.102;2023-04-27T01:28:10;7.82;;;4.70;;
27804;SDS011;15183;51.350;11.102;2023-04-27T01:30:37;8.40;;;5.30;;
27804;SDS011;15183;51.350;11.102;2023-04-27T01:33:03;8.82;;;5.20;;
27804;SDS011;15183;51.350;11.102;2023-04-27T01:35:30;8.35;;;4.30;;
27804;SDS011;15183;51.350;11.102;2023-04-27T01:37:56;8.95;;;4.90;;
27804;SDS011;15183;51.350;11.102;2023-04-27T01:40:22;7.28;;;3.88;;
27804;SDS011;15183;51.350;11.102;2023-04-27T01:42:49;10.07;;;5.75;;
27804;SDS011;15183;51.350;11.102;2023-04-27T01:45:15;8.55;;;5.85;;
27804;SDS011;15183;51.350;11.102;2023-04-27T01:47:42;6.72;;;4.70;;
27804;SDS011;15183;51.350;11.102;2023-04-27T01:50:08;6.45;;;3.95;;
27804;SDS011;15183;51.350;11.102;2023-04-27T01:52:35;7.07;;;3.95;;
27804;SDS011;15183;51.350;11.102;2023-04-27T01:55:01;5.53;;;3.85;;
27804;SDS011;15183;51.350;11.102;2023-04-27T01:57:28;5.85;;;3.45;;
27804;SDS011;15183;51.350;11.102;2023-04-27T01:59:54;6.80;;;3.75;;
27804;SDS011;15183;51.350;11.102;2023-04-27T02:02:21;5.43;;;3.28;;
27804;SDS011;15183;51.350;11.102;2023-04-27T02:04:47;7.13;;;5.03;;
27804;SDS011;15183;51.350;11.102;2023-04-27T02:07:14;7.65;;;4.65;;
27804;SDS011;15183;51.350;11.102;2023-04-27T02:09:40;5.95;;;3.65;;
27804;SDS011;15183;51.350;11.102;2023-04-27T02:12:07;8.43;;;5.30;;
27804;SDS011;15183;51.350;11.102;2023-04-27T02:14:33;9.43;;;5.05;;
27804;SDS011;15183;51.350;11.102;2023-04-27T02:17:00;7.45;;;4.72;;
27804;SDS011;15183;51.350;11.102;2023-04-27T02:19:26;8.45;;;4.20;;
27804;SDS011;15183;51.350;11.102;2023-04-27T02:21:52;5.82;;;3.83;;
27804;SDS011;15183;51.350;11.102;2023-04-27T02:24:19;7.47;;;3.97;;
27804;SDS011;15183;51.350;11.102;2023-04-27T02:26:45;5.10;;;3.80;;
27804;SDS011;15183;51.350;11.102;2023-04-27T02:29:12;6.45;;;3.50;;
27804;SDS011;15183;51.350;11.102;2023-04-27T02:31:38;7.47;;;3.45;;
27804;SDS011;15183;51.350;11.102;2023-04-27T02:34:05;9.07;;;4.22;;
27804;SDS011;15183;51.350;11.102;2023-04-27T02:36:31;5.47;;;3.60;;
27804;SDS011;15183;51.350;11.102;2023-04-27T02:38:57;8.55;;;3.60;;
27804;SDS011;15183;51.350;11.102;2023-04-27T02:41:24;7.15;;;3.35;;
27804;SDS011;15183;51.350;11.102;2023-04-27T02:43:52;5.03;;;3.45;;
27804;SDS011;15183;51.350;11.102;2023-04-27T02:46:19;9.45;;;4.85;;
27804;SDS011;15183;51.350;11.102;2023-04-27T02:48:45;8.48;;;4.75;;
27804;SDS011;15183;51.350;11.102;2023-04-27T02:51:11;6.22;;;4.00;;
27804;SDS011;15183;51.350;11.102;2023-04-27T02:53:38;6.05;;;3.95;;
27804;SDS011;15183;51.350;11.102;2023-04-27T02:56:04;7.00;;;4.82;;
27804;SDS011;15183;51.350;11.102;2023-04-27T02:58:31;7.95;;;4.97;;
27804;SDS011;15183;51.350;11.102;2023-04-27T03:00:57;11.00;;;5.72;;
27804;SDS011;15183;51.350;11.102;2023-04-27T03:03:24;7.15;;;4.15;;
27804;SDS011;15183;51.350;11.102;2023-04-27T03:05:50;9.75;;;5.50;;
27804;SDS011;15183;51.350;11.102;2023-04-27T03:08:16;11.50;;;5.30;;
27804;SDS011;15183;51.350;11.102;2023-04-27T03:10:43;7.80;;;5.53;;
27804;SDS011;15183;51.350;11.102;2023-04-27T03:13:09;9.82;;;4.90;;
27804;SDS011;15183;51.350;11.102;2023-04-27T03:15:36;8.75;;;4.07;;
27804;SDS011;15183;51.350;11.102;2023-04-27T03:18:02;7.50;;;4.55;;
27804;SDS011;15183;51.350;11.102;2023-04-27T03:20:29;4.93;;;3.67;;
27804;SDS011;15183;51.350;11.102;2023-04-27T03:22:56;6.30;;;4.00;;
27804;SDS011;15183;51.350;11.102;2023-04-27T03:25:22;7.30;;;4.22;;
27804;SDS011;15183;51.350;11.102;2023-04-27T03:27:49;4.90;;;3.88;;
27804;SDS011;15183;51.350;11.102;2023-04-27T03:30:15;7.68;;;4.18;;
27804;SDS011;15183;51.350;11.102;2023-04-27T03:32:42;10.65;;;4.47;;
27804;SDS011;15183;51.350;11.102;2023-04-27T03:35:08;7.63;;;3.92;;
27804;SDS011;15183;51.350;11.102;2023-04-27T03:37:35;5.32;;;3.38;;
27804;SDS011;15183;51.350;11.102;2023-04-27T03:40:01;7.05;;;4.18;;
27804;SDS011;15183;51.350;11.102;2023-04-27T03:42:31;6.55;;;3.60;;
27804;SDS011;15183;51.350;11.102;2023-04-27T03:44:58;6.63;;;3.30;;
27804;SDS011;15183;51.350;11.102;2023-04-27T03:47:24;7.85;;;4.00;;
27804;SDS011;15183;51.350;11.102;2023-04-27T03:49:51;7.85;;;4.90;;
27804;SDS011;15183;51.350;11.102;2023-04-27T03:52:17;5.78;;;3.60;;
27804;SDS011;15183;51.350;11.102;2023-04-27T03:54:43;5.32;;;4.13;;
27804;SDS011;15183;51.350;11.102;2023-04-27T03:57:10;7.60;;;4.57;;
27804;SDS011;15183;51.350;11.102;2023-04-27T03:59:36;6.22;;;4.05;;
27804;SDS011;15183;51.350;11.102;2023-04-27T04:02:03;14.63;;;4.50;;
27804;SDS011;15183;51.350;11.102;2023-04-27T04:04:30;8.77;;;4.30;;
27804;SDS011;15183;51.350;11.102;2023-04-27T04:06:56;5.57;;;4.03;;
27804;SDS011;15183;51.350;11.102;2023-04-27T04:09:23;7.75;;;5.35;;
27804;SDS011;15183;51.350;11.102;2023-04-27T04:11:50;7.60;;;4.85;;
27804;SDS011;15183;51.350;11.102;2023-04-27T04:14:17;7.57;;;4.45;;
27804;SDS011;15183;51.350;11.102;2023-04-27T04:16:43;4.47;;;3.50;;
27804;SDS011;15183;51.350;11.102;2023-04-27T04:19:10;7.13;;;3.70;;
27804;SDS011;15183;51.350;11.102;2023-04-27T04:21:36;5.60;;;3.83;;
27804;SDS011;15183;51.350;11.102;2023-04-27T04:24:02;6.88;;;4.15;;
27804;SDS011;15183;51.350;11.102;2023-04-27T04:26:29;6.45;;;4.40;;
27804;SDS011;15183;51.350;11.102;2023-04-27T04:28:55;7.43;;;4.25;;
27804;SDS011;15183;51.350;11.102;2023-04-27T04:31:22;6.53;;;4.57;;
27804;SDS011;15183;51.350;11.102;2023-04-27T04:33:48;6.38;;;4.85;;
27804;SDS011;15183;51.350;11.102;2023-04-27T04:36:15;8.52;;;4.70;;
27804;SDS011;15183;51.350;11.102;2023-04-27T04:38:41;10.70;;;4.68;;
27804;SDS011;15183;51.350;11.102;2023-04-27T04:41:07;8.68;;;5.35;;
27804;SDS011;15183;51.350;11.102;2023-04-27T04:43:35;9.15;;;5.28;;
27804;SDS011;15183;51.350;11.102;2023-04-27T04:46:01;10.55;;;5.00;;
27804;SDS011;15183;51.350;11.102;2023-04-27T04:48:27;5.78;;;4.05;;
27804;SDS011;15183;51.350;11.102;2023-04-27T04:50:54;6.32;;;3.72;;
27804;SDS011;15183;51.350;11.102;2023-04-27T04:53:21;5.88;;;3.88;;
27804;SDS011;15183;51.350;11.102;2023-04-27T04:55:48;7.15;;;4.38;;
27804;SDS011;15183;51.350;11.102;2023-04-27T04:58:14;10.35;;;5.72;;
27804;SDS011;15183;51.350;11.102;2023-04-27T05:00:40;11.73;;;6.40;;
27804;SDS011;15183;51.350;11.102;2023-04-27T05:03:07;8.98;;;5.30;;
27804;SDS011;15183;51.350;11.102;2023-04-27T05:05:34;7.20;;;4.60;;
27804;SDS011;15183;51.350;11.102;2023-04-27T05:08:00;20.92;;;5.85;;
27804;SDS011;15183;51.350;11.102;2023-04-27T05:10:26;8.43;;;4.60;;
27804;SDS011;15183;51.350;11.102;2023-04-27T05:12:53;5.55;;;3.92;;
27804;SDS011;15183;51.350;11.102;2023-04-27T05:15:19;8.85;;;4.30;;
27804;SDS011;15183;51.350;11.102;2023-04-27T05:17:46;10.40;;;4.75;;
27804;SDS011;15183;51.350;11.102;2023-04-27T05:20:12;8.10;;;4.68;;
27804;SDS011;15183;51.350;11.102;2023-04-27T05:22:39;8.40;;;4.13;;
27804;SDS011;15183;51.350;11.102;2023-04-27T05:25:05;7.50;;;4.32;;
27804;SDS011;15183;51.350;11.102;2023-04-27T05:27:33;8.93;;;5.28;;
27804;SDS011;15183;51.350;11.102;2023-04-27T05:30:00;9.93;;;6.50;;
27804;SDS011;15183;51.350;11.102;2023-04-27T05:32:26;11.10;;;5.50;;
27804;SDS011;15183;51.350;11.102;2023-04-27T05:34:53;17.77;;;10.75;;
27804;SDS011;15183;51.350;11.102;2023-04-27T05:37:19;13.02;;;8.30;;
27804;SDS011;15183;51.350;11.102;2023-04-27T05:39:46;12.18;;;7.63;;
27804;SDS011;15183;51.350;11.102;2023-04-27T05:42:12;11.15;;;6.75;;
27804;SDS011;15183;51.350;11.102;2023-04-27T05:44:38;8.95;;;6.43;;
27804;SDS011;15183;51.350;11.102;2023-04-27T05:47:05;10.02;;;6.35;;
27804;SDS011;15183;51.350;11.102;2023-04-27T05:49:31;7.25;;;5.93;;
27804;SDS011;15183;51.350;11.102;2023-04-27T05:51:58;12.63;;;7.15;;
27804;SDS011;15183;51.350;11.102;2023-04-27T05:54:24;12.05;;;7.03;;
27804;SDS011;15183;51.350;11.102;2023-04-27T05:56:52;9.48;;;6.80;;
27804;SDS011;15183;51.350;11.102;2023-04-27T05:59:18;11.52;;;7.03;;
27804;SDS011;15183;51.350;11.102;2023-04-27T06:01:44;12.85;;;8.13;;
27804;SDS011;15183;51.350;11.102;2023-04-27T06:04:11;11.50;;;7.07;;
27804;SDS011;15183;51.350;11.102;2023-04-27T06:06:37;14.75;;;7.22;;
27804;SDS011;15183;51.350;11.102;2023-04-27T06:09:04;13.70;;;7.35;;
27804;SDS011;15183;51.350;11.102;2023-04-27T06:11:30;8.95;;;5.25;;
27804;SDS011;15183;51.350;11.102;2023-04-27T06:13:56;9.00;;;5.85;;
27804;SDS011;15183;51.350;11.102;2023-04-27T06:16:23;10.73;;;5.50;;
27804;SDS011;15183;51.350;11.102;2023-04-27T06:18:49;8.02;;;5.32;;
27804;SDS011;15183;51.350;11.102;2023-04-27T06:21:16;7.88;;;5.82;;
27804;SDS011;15183;51.350;11.102;2023-04-27T06:23:43;9.00;;;5.38;;
27804;SDS011;15183;51.350;11.102;2023-04-27T06:26:09;9.70;;;6.05;;
27804;SDS011;15183;51.350;11.102;2023-04-27T06:28:36;6.75;;;4.65;;
27804;SDS011;15183;51.350;11.102;2023-04-27T06:31:02;8.73;;;5.25;;
27804;SDS011;15183;51.350;11.102;2023-04-27T06:33:29;9.65;;;6.60;;
27804;SDS011;15183;51.350;11.102;2023-04-27T06:35:55;11.45;;;6.43;;
27804;SDS011;15183;51.350;11.102;2023-04-27T06:38:21;14.60;;;7.93;;
27804;SDS011;15183;51.350;11.102;2023-04-27T06:40:51;11.38;;;7.05;;
27804;SDS011;15183;51.350;11.102;2023-04-27T06:43:17;7.47;;;4.90;;
27804;SDS011;15183;51.350;11.102;2023-04-27T06:45:44;11.23;;;6.07;;
27804;SDS011;15183;51.350;11.102;2023-04-27T06:48:10;7.20;;;5.38;;
27804;SDS011;15183;51.350;11.102;2023-04-27T06:50:37;9.52;;;5.00;;
27804;SDS011;15183;51.350;11.102;2023-04-27T06:53:03;13.57;;;8.30;;
27804;SDS011;15183;51.350;11.102;2023-04-27T06:55:29;8.38;;;5.00;;
27804;SDS011;15183;51.350;11.102;2023-04-27T06:58:05;8.30;;;6.35;;
27804;SDS011;15183;51.350;11.102;2023-04-27T07:00:31;11.35;;;8.15;;
27804;SDS011;15183;51.350;11.102;2023-04-27T07:02:58;8.23;;;5.97;;
27804;SDS011;15183;51.350;11.102;2023-04-27T07:05:24;13.45;;;5.75;;
27804;SDS011;15183;51.350;11.102;2023-04-27T07:07:51;9.82;;;5.93;;
27804;SDS011;15183;51.350;11.102;2023-04-27T07:10:17;8.82;;;5.38;;
27804;SDS011;15183;51.350;11.102;2023-04-27T07:12:44;13.60;;;7.97;;
27804;SDS011;15183;51.350;11.102;2023-04-27T07:15:11;11.15;;;5.85;;
27804;SDS011;15183;51.350;11.102;2023-04-27T07:17:37;9.32;;;6.22;;
27804;SDS011;15183;51.350;11.102;2023-04-27T07:20:04;10.88;;;6.40;;
27804;SDS011;15183;51.350;11.102;2023-04-27T07:22:32;11.18;;;5.82;;
27804;SDS011;15183;51.350;11.102;2023-04-27T07:24:58;7.22;;;4.47;;
27804;SDS011;15183;51.350;11.102;2023-04-27T07:27:25;12.98;;;5.13;;
27804;SDS011;15183;51.350;11.102;2023-04-27T07:29:52;13.85;;;8.75;;
27804;SDS011;15183;51.350;11.102;2023-04-27T07:32:18;11.38;;;8.02;;
27804;SDS011;15183;51.350;11.102;2023-04-27T07:34:45;11.82;;;6.97;;
27804;SDS011;15183;51.350;11.102;2023-04-27T07:37:13;27.10;;;15.75;;
27804;SDS011;15183;51.350;11.102;2023-04-27T07:39:40;14.63;;;8.65;;
27804;SDS011;15183;51.350;11.102;2023-04-27T07:42:07;18.75;;;12.13;;
27804;SDS011;15183;51.350;11.102;2023-04-27T07:44:33;25.02;;;14.55;;
27804;SDS011;15183;51.350;11.102;2023-04-27T07:47:00;36.67;;;22.88;;
27804;SDS011;15183;51.350;11.102;2023-04-27T07:49:29;30.23;;;18.45;;
27804;SDS011;15183;51.350;11.102;2023-04-27T07:51:57;30.33;;;19.15;;
27804;SDS011;15183;51.350;11.102;2023-04-27T07:54:23;14.23;;;9.82;;
27804;SDS011;15183;51.350;11.102;2023-04-27T07:56:49;16.17;;;10.20;;
27804;SDS011;15183;51.350;11.102;2023-04-27T07:59:16;6.40;;;4.85;;
27804;SDS011;15183;51.350;11.102;2023-04-27T08:01:42;22.00;;;13.68;;
27804;SDS011;15183;51.350;11.102;2023-04-27T08:04:09;27.58;;;15.88;;
27804;SDS011;15183;51.350;11.102;2023-04-27T08:06:37;18.98;;;10.98;;
27804;SDS011;15183;51.350;11.102;2023-04-27T08:09:04;17.40;;;10.23;;
27804;SDS011;15183;51.350;11.102;2023-04-27T08:11:30;7.30;;;4.63;;
27804;SDS011;15183;51.350;11.102;2023-04-27T08:13:57;20.30;;;12.90;;
27804;SDS011;15183;51.350;11.102;2023-04-27T08:16:23;12.70;;;6.15;;
27804;SDS011;15183;51.350;11.102;2023-04-27T08:18:50;8.18;;;4.78;;
27804;SDS011;15183;51.350;11.102;2023-04-27T08:21:16;11.45;;;7.28;;
27804;SDS011;15183;51.350;11.102;2023-04-27T08:23:43;11.43;;;6.53;;
27804;SDS011;15183;51.350;11.102;2023-04-27T08:26:12;27.90;;;15.52;;
27804;SDS011;15183;51.350;11.102;2023-04-27T08:28:40;19.30;;;11.70;;
27804;SDS011;15183;51.350;11.102;2023-04-27T08:31:07;12.90;;;6.57;;
27804;SDS011;15183;51.350;11.102;2023-04-27T08:33:33;15.52;;;9.05;;
27804;SDS011;15183;51.350;11.102;2023-04-27T08:36:00;14.05;;;10.43;;
27804;SDS011;15183;51.350;11.102;2023-04-27T08:38:26;10.70;;;7.10;;
27804;SDS011;15183;51.350;11.102;2023-04-27T08:40:52;12.20;;;7.40;;
27804;SDS011;15183;51.350;11.102;2023-04-27T08:43:19;7.28;;;5.40;;
27804;SDS011;15183;51.350;11.102;2023-04-27T08:45:46;15.30;;;8.40;;
27804;SDS011;15183;51.350;11.102;2023-04-27T08:48:17;15.30;;;7.80;;
27804;SDS011;15183;51.350;11.102;2023-04-27T08:50:45;15.10;;;9.85;;
27804;SDS011;15183;51.350;11.102;2023-04-27T08:53:16;13.82;;;9.98;;
27804;SDS011;15183;51.350;11.102;2023-04-27T08:55:45;17.38;;;9.20;;
27804;SDS011;15183;51.350;11.102;2023-04-27T08:58:11;20.52;;;12.95;;
27804;SDS011;15183;51.350;11.102;2023-04-27T09:00:38;21.75;;;14.23;;
27804;SDS011;15183;51.350;11.102;2023-04-27T09:03:22;13.27;;;8.32;;
27804;SDS011;15183;51.350;11.102;2023-04-27T09:05:50;14.32;;;8.98;;
27804;SDS011;15183;51.350;11.102;2023-04-27T09:08:16;13.15;;;9.15;;
27804;SDS011;15183;51.350;11.102;2023-04-27T09:10:44;11.85;;;7.90;;
27804;SDS011;15183;51.350;11.102;2023-04-27T09:13:17;10.25;;;6.13;;
27804;SDS011;15183;51.350;11.102;2023-04-27T09:15:44;15.98;;;10.70;;
27804;SDS011;15183;51.350;11.102;2023-04-27T09:18:14;11.70;;;7.97;;
27804;SDS011;15183;51.350;11.102;2023-04-27T09:20:48;8.52;;;5.93;;
27804;SDS011;15183;51.350;11.102;2023-04-27T09:26:06;12.63;;;7.90;;
27804;SDS011;15183;51.350;11.102;2023-04-27T09:28:34;13.25;;;8.25;;
27804;SDS011;15183;51.350;11.102;2023-04-27T09:31:03;8.70;;;6.50;;
27804;SDS011;15183;51.350;11.102;2023-04-27T09:33:31;8.43;;;5.57;;
27804;SDS011;15183;51.350;11.102;2023-04-27T09:36:00;10.40;;;6.47;;
27804;SDS011;15183;51.350;11.102;2023-04-27T09:38:30;11.18;;;8.35;;
27804;SDS011;15183;51.350;11.102;2023-04-27T09:40:57;13.38;;;8.02;;
27804;SDS011;15183;51.350;11.102;2023-04-27T09:43:25;13.38;;;9.20;;
27804;SDS011;15183;51.350;11.102;2023-04-27T09:45:53;9.95;;;6.60;;
27804;SDS011;15183;51.350;11.102;2023-04-27T09:48:21;10.45;;;6.00;;
27804;SDS011;15183;51.350;11.102;2023-04-27T09:50:49;11.55;;;8.05;;
27804;SDS011;15183;51.350;11.102;2023-04-27T09:53:17;8.05;;;5.70;;
27804;SDS011;15183;51.350;11.102;2023-04-27T09:59:08;10.73;;;7.30;;
27804;SDS011;15183;51.350;11.102;2023-04-27T10:02:06;12.77;;;7.72;;
27804;SDS011;15183;51.350;11.102;2023-04-27T10:07:38;8.18;;;5.57;;
27804;SDS011;15183;51.350;11.102;2023-04-27T10:10:05;6.05;;;5.22;;
27804;SDS011;15183;51.350;11.102;2023-04-27T10:12:41;11.40;;;8.25;;
27804;SDS011;15183;51.350;11.102;2023-04-27T10:15:15;17.52;;;10.93;;
27804;SDS011;15183;51.350;11.102;2023-04-27T10:17:48;12.88;;;9.57;;
27804;SDS011;15183;51.350;11.102;2023-04-27T10:20:27;13.38;;;8.40;;
27804;SDS011;15183;51.350;11.102;2023-04-27T10:23:01;14.43;;;7.88;;
27804;SDS011;15183;51.350;11.102;2023-04-27T10:25:29;16.60;;;10.77;;
27804;SDS011;15183;51.350;11.102;2023-04-27T10:28:06;15.25;;;11.15;;
27804;SDS011;15183;51.350;11.102;2023-04-27T10:30:34;13.77;;;9.32;;
27804;SDS011;15183;51.350;11.102;2023-04-27T10:33:06;11.55;;;7.70;;
27804;SDS011;15183;51.350;11.102;2023-04-27T10:35:38;10.32;;;6.65;;
27804;SDS011;15183;51.350;11.102;2023-04-27T10:38:09;14.80;;;9.50;;
27804;SDS011;15183;51.350;11.102;2023-04-27T10:40:44;12.10;;;8.57;;
27804;SDS011;15183;51.350;11.102;2023-04-27T10:43:23;11.30;;;7.45;;
27804;SDS011;15183;51.350;11.102;2023-04-27T10:45:51;15.27;;;10.85;;
27804;SDS011;15183;51.350;11.102;2023-04-27T10:48:18;10.65;;;7.07;;
27804;SDS011;15183;51.350;11.102;2023-04-27T10:54:27;14.50;;;9.80;;
27804;SDS011;15183;51.350;11.102;2023-04-27T10:57:00;14.07;;;9.02;;
27804;SDS011;15183;51.350;11.102;2023-04-27T10:59:50;19.65;;;12.70;;
27804;SDS011;15183;51.350;11.102;2023-04-27T11:02:27;16.90;;;10.93;;
27804;SDS011;15183;51.350;11.102;2023-04-27T11:04:54;15.52;;;9.88;;
27804;SDS011;15183;51.350;11.102;2023-04-27T11:07:24;16.02;;;10.18;;
27804;SDS011;15183;51.350;11.102;2023-04-27T11:09:52;19.85;;;13.60;;
27804;SDS011;15183;51.350;11.102;2023-04-27T11:12:19;16.52;;;12.30;;
27804;SDS011;15183;51.350;11.102;2023-04-27T11:14:46;9.35;;;6.97;;
27804;SDS011;15183;51.350;11.102;2023-04-27T11:17:12;15.55;;;9.45;;
27804;SDS011;15183;51.350;11.102;2023-04-27T11:19:45;14.45;;;7.32;;
27804;SDS011;15183;51.350;11.102;2023-04-27T11:22:12;10.18;;;7.28;;
27804;SDS011;15183;51.350;11.102;2023-04-27T11:24:50;13.20;;;8.02;;
27804;SDS011;15183;51.350;11.102;2023-04-27T11:27:18;13.50;;;8.73;;
27804;SDS011;15183;51.350;11.102;2023-04-27T11:29:46;14.35;;;6.22;;
27804;SDS011;15183;51.350;11.102;2023-04-27T11:32:20;16.60;;;10.27;;
27804;SDS011;15183;51.350;11.102;2023-04-27T11:34:50;11.25;;;7.82;;
27804;SDS011;15183;51.350;11.102;2023-04-27T11:37:22;8.82;;;5.50;;
27804;SDS011;15183;51.350;11.102;2023-04-27T11:39:50;7.82;;;6.50;;
27804;SDS011;15183;51.350;11.102;2023-04-27T11:45:29;9.32;;;5.95;;
27804;SDS011;15183;51.350;11.102;2023-04-27T11:47:59;10.20;;;7.80;;
27804;SDS011;15183;51.350;11.102;2023-04-27T11:50:25;15.90;;;8.90;;
27804;SDS011;15183;51.350;11.102;2023-04-27T11:52:52;9.02;;;7.68;;
27804;SDS011;15183;51.350;11.102;2023-04-27T11:55:19;10.98;;;6.80;;
27804;SDS011;15183;51.350;11.102;2023-04-27T11:57:46;8.93;;;6.93;;
27804;SDS011;15183;51.350;11.102;2023-04-27T12:00:13;12.82;;;9.63;;
27804;SDS011;15183;51.350;11.102;2023-04-27T12:02:41;12.07;;;7.45;;
27804;SDS011;15183;51.350;11.102;2023-04-27T12:05:08;13.07;;;9.80;;
27804;SDS011;15183;51.350;11.102;2023-04-27T12:07:36;15.55;;;10.02;;
27804;SDS011;15183;51.350;11.102;2023-04-27T12:10:03;13.88;;;8.63;;
27804;SDS011;15183;51.350;11.102;2023-04-27T12:12:31;16.33;;;10.23;;
27804;SDS011;15183;51.350;11.102;2023-04-27T12:14:58;14.70;;;9.70;;
27804;SDS011;15183;51.350;11.102;2023-04-27T12:17:24;13.40;;;9.23;;
27804;SDS011;15183;51.350;11.102;2023-04-27T12:19:51;10.45;;;6.70;;
27804;SDS011;15183;51.350;11.102;2023-04-27T12:22:17;11.48;;;7.03;;
27804;SDS011;15183;51.350;11.102;2023-04-27T12:24:44;13.60;;;7.30;;
27804;SDS011;15183;51.350;11.102;2023-04-27T12:27:11;10.50;;;6.40;;
27804;SDS011;15183;51.350;11.102;2023-04-27T12:29:37;10.30;;;6.07;;
27804;SDS011;15183;51.350;11.102;2023-04-27T12:32:04;9.30;;;5.20;;
27804;SDS011;15183;51.350;11.102;2023-04-27T12:38:12;9.73;;;6.20;;
27804;SDS011;15183;51.350;11.102;2023-04-27T12:40:38;6.25;;;4.97;;
27804;SDS011;15183;51.350;11.102;2023-04-27T12:43:05;11.27;;;7.82;;
27804;SDS011;15183;51.350;11.102;2023-04-27T12:45:33;9.82;;;6.97;;
27804;SDS011;15183;51.350;11.102;2023-04-27T12:50:48;9.57;;;6.72;;
27804;SDS011;15183;51.350;11.102;2023-04-27T12:53:14;10.35;;;6.28;;
27804;SDS011;15183;51.350;11.102;2023-04-27T12:55:41;12.02;;;7.55;;
27804;SDS011;15183;51.350;11.102;2023-04-27T12:58:07;8.88;;;5.53;;
27804;SDS011;15183;51.350;11.102;2023-04-27T13:00:34;10.95;;;7.28;;
27804;SDS011;15183;51.350;11.102;2023-04-27T13:03:00;7.93;;;4.95;;
27804;SDS011;15183;51.350;11.102;2023-04-27T13:05:26;8.10;;;5.90;;
27804;SDS011;15183;51.350;11.102;2023-04-27T13:07:53;10.07;;;5.82;;
27804;SDS011;15183;51.350;11.102;2023-04-27T13:10:19;7.60;;;4.65;;
27804;SDS011;15183;51.350;11.102;2023-04-27T13:12:46;6.72;;;4.82;;
27804;SDS011;15183;51.350;11.102;2023-04-27T13:15:12;6.90;;;4.85;;
27804;SDS011;15183;51.350;11.102;2023-04-27T13:17:39;9.30;;;5.72;;
27804;SDS011;15183;51.350;11.102;2023-04-27T13:20:05;9.88;;;6.22;;
27804;SDS011;15183;51.350;11.102;2023-04-27T13:22:33;9.70;;;5.22;;
27804;SDS011;15183;51.350;11.102;2023-04-27T13:25:00;7.43;;;5.38;;
27804;SDS011;15183;51.350;11.102;2023-04-27T13:27:26;7.70;;;5.28;;
27804;SDS011;15183;51.350;11.102;2023-04-27T13:29:53;5.97;;;4.88;;
27804;SDS011;15183;51.350;11.102;2023-04-27T13:32:19;6.18;;;4.80;;
27804;SDS011;15183;51.350;11.102;2023-04-27T13:34:46;7.07;;;4.10;;
27804;SDS011;15183;51.350;11.102;2023-04-27T13:37:13;6.63;;;4.18;;
27804;SDS011;15183;51.350;11.102;2023-04-27T13:39:40;8.20;;;4.55;;
27804;SDS011;15183;51.350;11.102;2023-04-27T13:42:07;6.82;;;4.47;;
27804;SDS011;15183;51.350;11.102;2023-04-27T13:44:33;8.05;;;4.28;;
27804;SDS011;15183;51.350;11.102;2023-04-27T13:47:00;6.15;;;4.20;;
27804;SDS011;15183;51.350;11.102;2023-04-27T13:49:26;7.72;;;4.40;;
27804;SDS011;15183;51.350;11.102;2023-04-27T13:51:52;5.53;;;4.45;;
27804;SDS011;15183;51.350;11.102;2023-04-27T13:54:19;7.43;;;4.10;;
27804;SDS011;15183;51.350;11.102;2023-04-27T13:56:46;7.22;;;4.65;;
27804;SDS011;15183;51.350;11.102;2023-04-27T13:59:12;5.25;;;3.80;;
27804;SDS011;15183;51.350;11.102;2023-04-27T14:01:40;6.90;;;4.00;;
27804;SDS011;15183;51.350;11.102;2023-04-27T14:04:07;6.68;;;4.32;;
27804;SDS011;15183;51.350;11.102;2023-04-27T14:06:33;6.15;;;4.32;;
27804;SDS011;15183;51.350;11.102;2023-04-27T14:09:00;4.55;;;3.25;;
27804;SDS011;15183;51.350;11.102;2023-04-27T14:11:27;6.25;;;3.38;;
27804;SDS011;15183;51.350;11.102;2023-04-27T14:13:54;4.75;;;3.83;;
27804;SDS011;15183;51.350;11.102;2023-04-27T14:16:20;4.40;;;3.40;;
27804;SDS011;15183;51.350;11.102;2023-04-27T14:18:48;5.35;;;3.28;;
27804;SDS011;15183;51.350;11.102;2023-04-27T14:21:16;7.53;;;4.50;;
27804;SDS011;15183;51.350;11.102;2023-04-27T14:23:43;5.05;;;3.55;;
27804;SDS011;15183;51.350;11.102;2023-04-27T14:26:10;8.27;;;4.13;;
27804;SDS011;15183;51.350;11.102;2023-04-27T14:28:37;5.03;;;3.72;;
27804;SDS011;15183;51.350;11.102;2023-04-27T14:31:03;5.93;;;3.90;;
27804;SDS011;15183;51.350;11.102;2023-04-27T14:33:30;4.80;;;3.50;;
27804;SDS011;15183;51.350;11.102;2023-04-27T14:35:56;7.95;;;4.05;;
27804;SDS011;15183;51.350;11.102;2023-04-27T14:38:23;7.78;;;3.60;;
27804;SDS011;15183;51.350;11.102;2023-04-27T14:40:49;5.68;;;3.92;;
27804;SDS011;15183;51.350;11.102;2023-04-27T14:43:15;4.88;;;3.35;;
27804;SDS011;15183;51.350;11.102;2023-04-27T14:45:42;3.60;;;3.10;;
27804;SDS011;15183;51.350;11.102;2023-04-27T14:48:08;6.10;;;3.63;;
27804;SDS011;15183;51.350;11.102;2023-04-27T14:50:35;5.10;;;3.60;;
27804;SDS011;15183;51.350;11.102;2023-04-27T14:53:01;9.00;;;3.20;;
27804;SDS011;15183;51.350;11.102;2023-04-27T14:55:28;5.88;;;4.10;;